Time;durP1;ratioP1;P1;durP2;ratioP2;P2;SDS_P1;SDS_P2;PMS_P1;PMS_P2;Temp;Humidity;BMP_temperature;BMP_pressure;BME280_temperature;BME280_humidity;BME280_pressure;Samples;Min_cycle;Max_cycle;Signal;HPM_P1;HPM_P2
2023/07/27 00:01:12;;;;;;;1.88;1.52;;;;;;;;;;8242625;28;20033;-73
2023/07/27 00:05:13;;;;;;;2.92;1.58;;;;;;;;;;8241038;28;20190;-73
2023/07/27 00:09:13;;;;;;;4.28;1.55;;;;;;;;;;8241643;28;20186;-73
2023/07/27 00:13:13;;;;;;;7.93;1.67;;;;;;;;;;8243096;28;20045;-73
2023/07/27 00:17:13;;;;;;;3.00;1.60;;;;;;;;;;8222938;28;20045;-73
2023/07/27 00:21:13;;;;;;;3.45;1.60;;;;;;;;;;8240931;28;20084;-73
2023/07/27 00:25:13;;;;;;;6.60;1.70;;;;;;;;;;8243155;28;20050;-73
2023/07/27 00:29:14;;;;;;;4.20;1.63;;;;;;;;;;8241076;28;20052;-73
2023/07/27 00:33:14;;;;;;;1.40;1.20;;;;;;;;;;8242054;28;20125;-73
2023/07/27 00:37:14;;;;;;;1.90;1.60;;;;;;;;;;8242649;28;20017;-73
2023/07/27 00:41:14;;;;;;;4.35;1.55;;;;;;;;;;8241982;28;20076;-73
2023/07/27 00:45:15;;;;;;;5.63;1.53;;;;;;;;;;8240645;28;20033;-73
2023/07/27 00:49:15;;;;;;;3.38;1.65;;;;;;;;;;8243534;28;20137;-73
2023/07/27 00:53:15;;;;;;;1.98;1.30;;;;;;;;;;8230798;28;20029;-73
2023/07/27 00:57:17;;;;;;;1.85;1.40;;;;;;;;;;8230168;28;20071;-73
2023/07/27 01:01:17;;;;;;;4.13;1.48;;;;;;;;;;8241842;28;20202;-73
2023/07/27 01:05:17;;;;;;;3.80;1.33;;;;;;;;;;8238346;28;20053;-73
2023/07/27 01:09:18;;;;;;;3.05;1.77;;;;;;;;;;8243100;28;20068;-73
2023/07/27 01:13:22;;;;;;;4.40;1.80;;;;;;;;;;8242187;28;20483;-73
2023/07/27 01:17:29;;;;;;;3.30;1.52;;;;;;;;;;8239805;28;20279;-73
2023/07/27 01:21:32;;;;;;;3.72;1.50;;;;;;;;;;8241869;28;20038;-73
2023/07/27 01:25:52;;;;;;;2.20;1.63;;;;;;;;;;8240265;28;20061;-73
2023/07/27 01:30:19;;;;;;;3.17;1.45;;;;;;;;;;8235808;28;20544;-73
2023/07/27 01:34:26;;;;;;;3.03;1.50;;;;;;;;;;8228672;28;21081;-73
2023/07/27 01:38:28;;;;;;;2.25;1.40;;;;;;;;;;8241562;28;20015;-73
2023/07/27 01:42:29;;;;;;;1.50;1.40;;;;;;;;;;8240567;28;20838;-73
2023/07/27 01:46:30;;;;;;;4.32;1.40;;;;;;;;;;8240508;28;20030;-73
2023/07/27 01:50:31;;;;;;;3.40;1.60;;;;;;;;;;8233024;28;20080;-73
2023/07/27 01:54:32;;;;;;;4.88;1.52;;;;;;;;;;8240235;28;20041;-73
2023/07/27 01:58:33;;;;;;;5.75;1.83;;;;;;;;;;8238568;28;20550;-73
2023/07/27 02:02:34;;;;;;;1.80;1.40;;;;;;;;;;8239733;28;21814;-73
2023/07/27 02:06:34;;;;;;;1.70;1.30;;;;;;;;;;8240165;28;21010;-73
2023/07/27 02:10:35;;;;;;;3.58;1.70;;;;;;;;;;8238648;28;20030;-73
2023/07/27 02:14:40;;;;;;;2.92;1.50;;;;;;;;;;8238909;28;20026;-73
2023/07/27 02:18:40;;;;;;;2.08;1.40;;;;;;;;;;8237921;28;20038;-73
2023/07/27 02:22:41;;;;;;;1.65;1.38;;;;;;;;;;8220293;28;20023;-73
2023/07/27 02:26:42;;;;;;;1.65;1.25;;;;;;;;;;8239709;28;20443;-73
2023/07/27 02:30:42;;;;;;;1.70;1.48;;;;;;;;;;8235907;28;20034;-73
2023/07/27 02:34:42;;;;;;;2.47;1.52;;;;;;;;;;8240169;28;20037;-73
2023/07/27 02:38:42;;;;;;;2.40;1.40;;;;;;;;;;8236752;28;20029;-73
2023/07/27 02:42:43;;;;;;;5.60;1.57;;;;;;;;;;8239781;28;20022;-73
2023/07/27 02:46:43;;;;;;;4.50;1.83;;;;;;;;;;8238976;28;20265;-73
2023/07/27 02:50:50;;;;;;;5.40;1.70;;;;;;;;;;8238218;28;20026;-72
2023/07/27 02:54:50;;;;;;;3.90;1.60;;;;;;;;;;8238312;28;20026;-73
2023/07/27 02:58:50;;;;;;;1.50;1.40;;;;;;;;;;8239124;28;20053;-73
2023/07/27 03:02:51;;;;;;;2.55;1.40;;;;;;;;;;8237945;28;21102;-73
2023/07/27 03:06:51;;;;;;;1.40;1.30;;;;;;;;;;8237852;28;20125;-73
2023/07/27 03:10:51;;;;;;;2.22;1.55;;;;;;;;;;8229198;28;20030;-73
2023/07/27 03:14:51;;;;;;;4.63;1.42;;;;;;;;;;8238960;28;20024;-73
2023/07/27 03:18:52;;;;;;;3.33;1.42;;;;;;;;;;8238125;28;20038;-73
2023/07/27 03:22:52;;;;;;;1.58;1.40;;;;;;;;;;8239826;28;20022;-73
2023/07/27 03:26:52;;;;;;;4.93;1.50;;;;;;;;;;8238107;28;20045;-73
2023/07/27 03:30:52;;;;;;;2.17;1.53;;;;;;;;;;8238940;28;20038;-73
2023/07/27 03:34:53;;;;;;;2.47;1.55;;;;;;;;;;8238736;28;20038;-73
2023/07/27 03:38:53;;;;;;;2.50;1.60;;;;;;;;;;8238613;28;20117;-72
2023/07/27 03:42:53;;;;;;;1.92;1.40;;;;;;;;;;8239237;28;20022;-72
2023/07/27 03:46:53;;;;;;;3.47;1.85;;;;;;;;;;8237089;28;20034;-73
2023/07/27 03:50:53;;;;;;;5.45;1.70;;;;;;;;;;8237312;28;20060;-72
2023/07/27 03:54:54;;;;;;;3.57;1.70;;;;;;;;;;8225125;28;20082;-73
2023/07/27 03:58:54;;;;;;;1.88;1.60;;;;;;;;;;8244416;28;20287;-72
2023/07/27 04:02:54;;;;;;;3.33;1.90;;;;;;;;;;8240811;28;20068;-73
2023/07/27 04:06:54;;;;;;;2.83;1.80;;;;;;;;;;8243971;28;20406;-73
2023/07/27 04:10:55;;;;;;;2.00;1.63;;;;;;;;;;8243616;28;20146;-73
2023/07/27 04:14:55;;;;;;;2.30;1.40;;;;;;;;;;8224509;28;20066;-74
2023/07/27 04:18:55;;;;;;;3.38;1.65;;;;;;;;;;8241075;28;20161;-72
2023/07/27 04:22:55;;;;;;;3.15;1.67;;;;;;;;;;8241442;28;20015;-74
2023/07/27 04:26:56;;;;;;;3.05;1.42;;;;;;;;;;8241769;28;20146;-73
2023/07/27 04:30:56;;;;;;;2.47;1.70;;;;;;;;;;8244522;28;20034;-72
2023/07/27 04:34:56;;;;;;;2.92;1.75;;;;;;;;;;8240569;28;20037;-72
2023/07/27 04:38:57;;;;;;;1.73;1.63;;;;;;;;;;8240372;28;20056;-73
2023/07/27 04:42:58;;;;;;;4.57;1.92;;;;;;;;;;8226306;28;20688;-72
2023/07/27 04:46:58;;;;;;;3.37;1.53;;;;;;;;;;8222439;28;20050;-73
2023/07/27 04:50:58;;;;;;;3.70;1.83;;;;;;;;;;8242552;28;20013;-72
2023/07/27 04:54:59;;;;;;;2.75;1.90;;;;;;;;;;8243730;28;20127;-73
2023/07/27 04:58:59;;;;;;;3.87;1.47;;;;;;;;;;8240952;28;20018;-73
2023/07/27 05:02:59;;;;;;;4.33;1.77;;;;;;;;;;8239665;28;20113;-72
2023/07/27 05:06:59;;;;;;;4.40;1.63;;;;;;;;;;8239632;28;20280;-73
2023/07/27 05:11:02;;;;;;;2.00;1.55;;;;;;;;;;8240778;28;20108;-73
2023/07/27 05:15:02;;;;;;;3.72;1.98;;;;;;;;;;8231451;28;20797;-72
2023/07/27 05:19:03;;;;;;;2.60;1.58;;;;;;;;;;8241146;28;20038;-72
2023/07/27 05:23:03;;;;;;;2.83;1.38;;;;;;;;;;8240963;28;20025;-73
2023/07/27 05:27:03;;;;;;;1.48;1.38;;;;;;;;;;8242683;28;20038;-72
2023/07/27 05:31:03;;;;;;;2.65;1.50;;;;;;;;;;8238354;28;20096;-72
2023/07/27 05:35:04;;;;;;;3.55;1.70;;;;;;;;;;8235884;28;20078;-72
2023/07/27 05:39:04;;;;;;;4.00;1.67;;;;;;;;;;8238515;28;20027;-73
2023/07/27 05:43:04;;;;;;;3.08;2.17;;;;;;;;;;8239713;28;20061;-72
2023/07/27 05:47:05;;;;;;;2.78;1.85;;;;;;;;;;8235225;28;20022;-73
2023/07/27 05:51:05;;;;;;;3.87;1.90;;;;;;;;;;8236535;28;20846;-72
2023/07/27 05:55:05;;;;;;;3.97;1.80;;;;;;;;;;8236888;28;20545;-72
2023/07/27 05:59:05;;;;;;;3.03;1.73;;;;;;;;;;8239340;28;20037;-72
2023/07/27 06:03:06;;;;;;;2.42;1.77;;;;;;;;;;8238170;28;20522;-72
2023/07/27 06:07:06;;;;;;;2.47;1.88;;;;;;;;;;8239210;28;20058;-73
2023/07/27 06:11:09;;;;;;;3.38;1.80;;;;;;;;;;8238439;28;20030;-73
2023/07/27 06:15:09;;;;;;;3.27;1.90;;;;;;;;;;8238608;28;20766;-73
2023/07/27 06:19:10;;;;;;;2.65;2.13;;;;;;;;;;8236580;28;20029;-72
2023/07/27 06:23:10;;;;;;;2.45;1.77;;;;;;;;;;8239694;28;20044;-72
2023/07/27 06:27:10;;;;;;;2.92;1.80;;;;;;;;;;8237921;28;20084;-72
2023/07/27 06:31:10;;;;;;;2.85;2.00;;;;;;;;;;8239122;28;20073;-72
2023/07/27 06:35:11;;;;;;;5.32;2.10;;;;;;;;;;8221902;28;20029;-72
2023/07/27 06:39:11;;;;;;;5.68;1.95;;;;;;;;;;8237897;28;20022;-71
2023/07/27 06:43:12;;;;;;;3.00;1.83;;;;;;;;;;8237464;28;20926;-71
2023/07/27 06:47:12;;;;;;;3.75;1.90;;;;;;;;;;8236734;28;20061;-71
2023/07/27 06:51:12;;;;;;;3.60;2.00;;;;;;;;;;8237920;28;20054;-70
2023/07/27 06:55:13;;;;;;;4.10;1.70;;;;;;;;;;8236153;28;20278;-70
2023/07/27 06:59:13;;;;;;;2.35;1.55;;;;;;;;;;8236362;28;20132;-70
2023/07/27 07:03:13;;;;;;;2.63;1.60;;;;;;;;;;8214680;28;20735;-70
2023/07/27 07:07:14;;;;;;;2.75;1.60;;;;;;;;;;8235455;28;20095;-70
2023/07/27 07:11:14;;;;;;;2.50;1.50;;;;;;;;;;8238171;28;20057;-70
2023/07/27 07:15:14;;;;;;;16.10;2.95;;;;;;;;;;8236150;28;20062;-70
2023/07/27 07:19:14;;;;;;;7.73;1.80;;;;;;;;;;8234970;28;20085;-70
2023/07/27 07:23:15;;;;;;;3.03;1.70;;;;;;;;;;8237786;28;20149;-72
2023/07/27 07:27:15;;;;;;;5.85;2.08;;;;;;;;;;8224788;28;20026;-74
2023/07/27 07:31:15;;;;;;;5.07;1.80;;;;;;;;;;8222671;28;20120;-74
2023/07/27 07:35:15;;;;;;;2.70;1.67;;;;;;;;;;8242207;28;20038;-74
2023/07/27 07:39:17;;;;;;;4.38;1.70;;;;;;;;;;8242713;28;20123;-74
2023/07/27 07:43:17;;;;;;;1.73;1.58;;;;;;;;;;8243760;28;20027;-74
2023/07/27 07:47:17;;;;;;;3.45;1.50;;;;;;;;;;8242021;28;20101;-73
2023/07/27 07:51:18;;;;;;;1.63;1.52;;;;;;;;;;8242486;28;20141;-73
2023/07/27 07:55:18;;;;;;;4.72;1.48;;;;;;;;;;8242228;28;20030;-75
2023/07/27 07:59:18;;;;;;;1.77;1.30;;;;;;;;;;8239811;28;20025;-74
2023/07/27 08:03:18;;;;;;;2.05;1.30;;;;;;;;;;8237374;28;20022;-74
2023/07/27 08:07:19;;;;;;;2.03;1.20;;;;;;;;;;8241905;28;20450;-75
2023/07/27 08:11:19;;;;;;;1.52;1.13;;;;;;;;;;8245449;28;20068;-69
2023/07/27 08:15:19;;;;;;;1.38;1.10;;;;;;;;;;8246238;28;20026;-70
2023/07/27 08:19:20;;;;;;;2.22;1.20;;;;;;;;;;8244545;28;20010;-69
2023/07/27 08:23:20;;;;;;;4.38;1.10;;;;;;;;;;8244047;28;20831;-70
2023/07/27 08:27:20;;;;;;;2.33;1.30;;;;;;;;;;8241848;28;20865;-69
2023/07/27 08:31:21;;;;;;;2.03;1.40;;;;;;;;;;8241285;28;20168;-69
2023/07/27 08:35:21;;;;;;;2.93;1.53;;;;;;;;;;8241719;28;20057;-69
2023/07/27 08:39:21;;;;;;;3.97;1.80;;;;;;;;;;8240729;28;20360;-69
2023/07/27 08:43:22;;;;;;;3.88;1.58;;;;;;;;;;8225020;28;20486;-70
2023/07/27 08:47:22;;;;;;;5.40;1.40;;;;;;;;;;8241891;28;20777;-69
2023/07/27 08:51:23;;;;;;;2.40;1.50;;;;;;;;;;8239661;28;20104;-69
2023/07/27 08:55:23;;;;;;;3.42;1.70;;;;;;;;;;8240268;28;20042;-69
2023/07/27 08:59:26;;;;;;;2.17;1.70;;;;;;;;;;8238643;28;20151;-69
2023/07/27 09:03:26;;;;;;;3.97;1.40;;;;;;;;;;8241615;28;20145;-69
2023/07/27 09:07:26;;;;;;;2.50;1.77;;;;;;;;;;8222961;28;20069;-69
2023/07/27 09:11:26;;;;;;;2.35;1.73;;;;;;;;;;8222690;28;20030;-69
2023/07/27 09:15:27;;;;;;;2.75;1.80;;;;;;;;;;8237956;28;20038;-69
2023/07/27 09:19:32;;;;;;;3.92;2.00;;;;;;;;;;8239004;28;20064;-69
2023/07/27 09:23:32;;;;;;;2.20;1.77;;;;;;;;;;8240464;28;20106;-69
2023/07/27 09:27:40;;;;;;;2.25;1.65;;;;;;;;;;8239664;28;20058;-69
2023/07/27 09:31:44;;;;;;;2.88;1.80;;;;;;;;;;8239697;28;20046;-69
2023/07/27 09:35:46;;;;;;;1.85;1.70;;;;;;;;;;8237396;28;20890;-69
2023/07/27 09:39:46;;;;;;;3.63;1.77;;;;;;;;;;8240810;28;20492;-70
2023/07/27 09:43:48;;;;;;;1.60;1.50;;;;;;;;;;8240573;28;20529;-69
2023/07/27 09:47:50;;;;;;;1.88;1.77;;;;;;;;;;8238270;28;20039;-69
2023/07/27 09:51:51;;;;;;;3.58;1.90;;;;;;;;;;8237327;28;20024;-69
2023/07/27 09:55:52;;;;;;;2.92;1.90;;;;;;;;;;8238704;28;20041;-70
2023/07/27 09:59:52;;;;;;;3.50;1.73;;;;;;;;;;8237844;28;20025;-69
2023/07/27 10:03:57;;;;;;;3.42;1.65;;;;;;;;;;8236679;28;20045;-70
2023/07/27 10:07:57;;;;;;;1.73;1.60;;;;;;;;;;8240265;28;20743;-69
2023/07/27 10:11:59;;;;;;;2.10;1.60;;;;;;;;;;8239681;28;20022;-69
2023/07/27 10:16:00;;;;;;;2.92;2.05;;;;;;;;;;8237959;28;20119;-69
2023/07/27 10:20:19;;;;;;;2.42;1.88;;;;;;;;;;8229823;28;20018;-69
2023/07/27 10:24:23;;;;;;;2.95;1.90;;;;;;;;;;8239308;28;20029;-69
2023/07/27 10:28:39;;;;;;;2.55;1.80;;;;;;;;;;8236604;28;20137;-69
2023/07/27 10:32:59;;;;;;;4.47;1.70;;;;;;;;;;8238695;28;20045;-69
2023/07/27 10:37:00;;;;;;;1.60;1.50;;;;;;;;;;8231715;28;21020;-69
2023/07/27 10:41:16;;;;;;;2.38;1.60;;;;;;;;;;8232066;28;20029;-70
2023/07/27 10:45:23;;;;;;;2.17;1.70;;;;;;;;;;8225738;28;20022;-69
2023/07/27 10:49:23;;;;;;;1.67;1.42;;;;;;;;;;8232099;28;20041;-69
2023/07/27 10:53:24;;;;;;;1.20;1.10;;;;;;;;;;8234869;28;20038;-69
2023/07/27 10:57:28;;;;;;;1.50;1.40;;;;;;;;;;8235666;28;20026;-70
2023/07/27 11:01:30;;;;;;;1.90;1.20;;;;;;;;;;8235159;28;20775;-70
2023/07/27 11:05:30;;;;;;;1.73;1.40;;;;;;;;;;8237903;28;20140;-69
2023/07/27 11:09:30;;;;;;;1.63;1.30;;;;;;;;;;8240236;28;20057;-69
2023/07/27 11:13:31;;;;;;;1.60;1.00;;;;;;;;;;8241067;28;20125;-69
2023/07/27 11:17:33;;;;;;;1.67;1.17;;;;;;;;;;8238931;28;20042;-69
2023/07/27 11:21:35;;;;;;;1.00;0.98;;;;;;;;;;8238650;28;20038;-69
2023/07/27 11:25:37;;;;;;;2.95;1.20;;;;;;;;;;8241671;28;20033;-70
2023/07/27 11:29:39;;;;;;;1.20;1.10;;;;;;;;;;8242822;28;20029;-70
2023/07/27 11:33:39;;;;;;;1.65;1.30;;;;;;;;;;8238693;28;20117;-69
2023/07/27 11:37:39;;;;;;;1.63;1.52;;;;;;;;;;8238917;28;20773;-70
2023/07/27 11:41:40;;;;;;;1.85;1.27;;;;;;;;;;8239740;28;20088;-70
2023/07/27 11:45:40;;;;;;;1.33;1.20;;;;;;;;;;8240629;28;20045;-70
2023/07/27 11:49:40;;;;;;;1.08;1.08;;;;;;;;;;8240347;28;20269;-70
2023/07/27 11:53:43;;;;;;;1.85;1.27;;;;;;;;;;8224851;28;20654;-70
2023/07/27 11:57:50;;;;;;;3.95;1.30;;;;;;;;;;8242320;28;20025;-70
2023/07/27 12:01:51;;;;;;;1.60;1.50;;;;;;;;;;8238944;28;20048;-70
2023/07/27 12:05:56;;;;;;;1.40;1.30;;;;;;;;;;8240662;28;20041;-70
2023/07/27 12:09:57;;;;;;;1.85;1.33;;;;;;;;;;8242229;28;20419;-69
2023/07/27 12:13:57;;;;;;;1.40;1.30;;;;;;;;;;8239810;28;21806;-69
2023/07/27 12:17:58;;;;;;;2.88;1.50;;;;;;;;;;8238162;28;20406;-69
2023/07/27 12:21:58;;;;;;;1.45;1.35;;;;;;;;;;8238833;28;20083;-69
2023/07/27 12:25:59;;;;;;;2.00;1.50;;;;;;;;;;8241406;28;20138;-69
2023/07/27 12:29:59;;;;;;;3.23;1.80;;;;;;;;;;8238185;28;20030;-69
2023/07/27 12:33:59;;;;;;;1.42;1.30;;;;;;;;;;8239379;28;20454;-69
2023/07/27 12:38:00;;;;;;;1.70;1.60;;;;;;;;;;8217420;28;20064;-69
2023/07/27 12:42:00;;;;;;;3.35;1.63;;;;;;;;;;8231200;28;20133;-69
2023/07/27 12:46:00;;;;;;;2.47;1.93;;;;;;;;;;8239125;28;20061;-69
2023/07/27 12:50:01;;;;;;;1.92;1.75;;;;;;;;;;8234640;28;20153;-68
2023/07/27 12:54:04;;;;;;;2.45;1.80;;;;;;;;;;8240767;28;20033;-69
2023/07/27 12:58:04;;;;;;;2.33;1.77;;;;;;;;;;8233856;28;20041;-69
2023/07/27 13:02:05;;;;;;;4.43;1.60;;;;;;;;;;8238857;28;20029;-68
2023/07/27 13:06:05;;;;;;;2.22;1.70;;;;;;;;;;8235299;28;21199;-69
2023/07/27 13:10:05;;;;;;;2.27;1.70;;;;;;;;;;8236038;28;21093;-69
2023/07/27 13:14:06;;;;;;;2.65;1.60;;;;;;;;;;8220303;28;20399;-69
2023/07/27 13:18:06;;;;;;;2.03;1.52;;;;;;;;;;8219878;28;20088;-69
2023/07/27 13:22:06;;;;;;;4.60;2.00;;;;;;;;;;8236896;28;20017;-70
2023/07/27 13:26:08;;;;;;;2.33;1.90;;;;;;;;;;8234839;28;20037;-70
2023/07/27 13:30:09;;;;;;;2.38;1.80;;;;;;;;;;8233468;28;20120;-70
2023/07/27 13:34:09;;;;;;;1.83;1.73;;;;;;;;;;8234860;28;20068;-70
2023/07/27 13:38:09;;;;;;;2.60;1.70;;;;;;;;;;8232830;28;20030;-70
2023/07/27 13:42:09;;;;;;;4.32;1.80;;;;;;;;;;8235820;28;20022;-70
2023/07/27 13:46:09;;;;;;;1.98;1.80;;;;;;;;;;8238121;28;20149;-69
2023/07/27 13:50:10;;;;;;;1.85;1.63;;;;;;;;;;8234229;28;20030;-70
2023/07/27 13:54:10;;;;;;;1.80;1.70;;;;;;;;;;8235925;28;20030;-74
2023/07/27 13:58:10;;;;;;;1.80;1.70;;;;;;;;;;8235218;28;20022;-74
2023/07/27 14:02:10;;;;;;;2.63;2.10;;;;;;;;;;8235294;28;20117;-75
2023/07/27 14:06:11;;;;;;;1.97;1.87;;;;;;;;;;8238363;28;20174;-75
2023/07/27 14:10:11;;;;;;;5.05;2.10;;;;;;;;;;8236134;28;20307;-75
2023/07/27 14:14:12;;;;;;;3.78;2.20;;;;;;;;;;8235474;28;20120;-75
2023/07/27 14:18:12;;;;;;;3.47;2.17;;;;;;;;;;8235896;28;20030;-74
2023/07/27 14:22:12;;;;;;;5.18;2.50;;;;;;;;;;8235624;28;20162;-74
2023/07/27 14:26:13;;;;;;;3.42;2.20;;;;;;;;;;8236532;28;20057;-74
2023/07/27 14:30:13;;;;;;;2.58;2.38;;;;;;;;;;8217220;28;20036;-74
2023/07/27 14:34:13;;;;;;;3.35;2.30;;;;;;;;;;8234990;28;20030;-74
2023/07/27 14:38:14;;;;;;;4.07;2.50;;;;;;;;;;8236633;28;20014;-75
2023/07/27 14:42:14;;;;;;;2.75;2.45;;;;;;;;;;8234042;28;20057;-75
2023/07/27 14:46:14;;;;;;;2.78;2.20;;;;;;;;;;8227738;28;20033;-74
2023/07/27 14:50:14;;;;;;;3.50;2.47;;;;;;;;;;8232013;28;20037;-73
2023/07/27 14:54:14;;;;;;;3.33;2.10;;;;;;;;;;8236092;28;20297;-73
2023/07/27 14:58:15;;;;;;;2.50;2.30;;;;;;;;;;8232669;28;20077;-74
2023/07/27 15:02:15;;;;;;;2.83;2.30;;;;;;;;;;8216830;28;20057;-73
2023/07/27 15:06:15;;;;;;;3.08;2.70;;;;;;;;;;8236420;28;20317;-73
2023/07/27 15:10:15;;;;;;;3.43;2.50;;;;;;;;;;8235581;28;20149;-72
2023/07/27 15:14:16;;;;;;;3.42;2.35;;;;;;;;;;8236976;28;20034;-73
2023/07/27 15:18:16;;;;;;;2.93;2.30;;;;;;;;;;8234761;28;20038;-73
2023/07/27 15:22:17;;;;;;;2.47;2.28;;;;;;;;;;8236110;28;20284;-72
2023/07/27 15:26:17;;;;;;;2.83;2.55;;;;;;;;;;8230464;28;20022;-73
2023/07/27 15:30:17;;;;;;;3.97;2.37;;;;;;;;;;8230756;28;20636;-74
2023/07/27 15:34:17;;;;;;;2.45;2.08;;;;;;;;;;8231191;28;20760;-74
2023/07/27 15:38:18;;;;;;;2.50;2.30;;;;;;;;;;8235059;28;20033;-74
2023/07/27 15:42:19;;;;;;;3.10;2.20;;;;;;;;;;8236524;28;20467;-75
2023/07/27 15:46:19;;;;;;;3.13;2.30;;;;;;;;;;8234502;28;20735;-74
2023/07/27 15:50:19;;;;;;;2.37;2.17;;;;;;;;;;8237085;28;20049;-75
2023/07/27 15:54:19;;;;;;;2.38;2.15;;;;;;;;;;8241011;28;20030;-75
2023/07/27 15:58:21;;;;;;;2.50;2.25;;;;;;;;;;8241128;28;20018;-75
2023/07/27 16:02:21;;;;;;;2.83;2.30;;;;;;;;;;8241751;28;20931;-75
2023/07/27 16:06:21;;;;;;;2.58;2.30;;;;;;;;;;8239433;28;20045;-76
2023/07/27 16:10:21;;;;;;;2.97;2.45;;;;;;;;;;8239647;28;20061;-75
2023/07/27 16:14:21;;;;;;;2.45;2.25;;;;;;;;;;8240861;28;20041;-76
2023/07/27 16:18:22;;;;;;;2.50;2.10;;;;;;;;;;8254214;28;20129;-77
2023/07/27 16:22:24;;;;;;;2.50;2.00;;;;;;;;;;8286327;28;20030;-76
2023/07/27 16:26:25;;;;;;;2.55;2.33;;;;;;;;;;8277719;28;20019;-75
2023/07/27 16:30:25;;;;;;;4.28;2.20;;;;;;;;;;8269653;28;20064;-76
2023/07/27 16:34:25;;;;;;;2.90;2.40;;;;;;;;;;8279186;28;20026;-79
2023/07/27 16:38:25;;;;;;;2.87;2.20;;;;;;;;;;8250878;28;20025;-76
2023/07/27 16:42:26;;;;;;;2.17;1.95;;;;;;;;;;8254576;28;20030;-74
2023/07/27 16:46:26;;;;;;;3.20;2.30;;;;;;;;;;8271792;28;20030;-74
2023/07/27 16:50:26;;;;;;;2.60;2.20;;;;;;;;;;8245584;28;20081;-75
2023/07/27 16:54:26;;;;;;;2.53;2.33;;;;;;;;;;8249193;28;20037;-74
2023/07/27 16:58:26;;;;;;;5.07;2.58;;;;;;;;;;8261122;28;20057;-74
2023/07/27 17:02:27;;;;;;;3.15;2.30;;;;;;;;;;8271842;28;20037;-75
2023/07/27 17:06:27;;;;;;;3.37;2.20;;;;;;;;;;8256463;28;20021;-76
2023/07/27 17:10:27;;;;;;;2.83;2.33;;;;;;;;;;8261354;28;20034;-74
2023/07/27 17:14:28;;;;;;;4.72;2.40;;;;;;;;;;8258240;28;20408;-74
2023/07/27 17:18:29;;;;;;;3.10;2.33;;;;;;;;;;8243638;28;20035;-76
2023/07/27 17:22:29;;;;;;;3.88;2.20;;;;;;;;;;8236498;28;20724;-76
2023/07/27 17:26:29;;;;;;;3.78;2.30;;;;;;;;;;8236880;28;20098;-76
2023/07/27 17:30:32;;;;;;;2.90;2.27;;;;;;;;;;8215743;28;20042;-76
2023/07/27 17:34:32;;;;;;;2.40;2.20;;;;;;;;;;8236502;28;20030;-76
2023/07/27 17:38:33;;;;;;;3.58;2.40;;;;;;;;;;8237561;28;20037;-75
2023/07/27 17:42:34;;;;;;;2.95;2.25;;;;;;;;;;8238042;28;20080;-75
2023/07/27 17:46:34;;;;;;;5.00;2.50;;;;;;;;;;8235876;28;20799;-76
2023/07/27 17:50:34;;;;;;;3.40;2.20;;;;;;;;;;8222516;28;20356;-75
2023/07/27 17:54:34;;;;;;;3.50;2.30;;;;;;;;;;8234712;28;20030;-75
2023/07/27 17:58:36;;;;;;;3.00;2.50;;;;;;;;;;8234539;28;20525;-75
2023/07/27 18:02:36;;;;;;;2.40;2.20;;;;;;;;;;8216740;28;20038;-75
2023/07/27 18:06:36;;;;;;;2.63;2.30;;;;;;;;;;8233740;28;20029;-75
2023/07/27 18:10:36;;;;;;;2.38;2.17;;;;;;;;;;8235577;28;20030;-75
2023/07/27 18:14:37;;;;;;;2.77;2.00;;;;;;;;;;8223087;28;20037;-75
2023/07/27 18:18:37;;;;;;;2.43;2.20;;;;;;;;;;8233481;28;20045;-75
2023/07/27 18:22:38;;;;;;;2.80;2.38;;;;;;;;;;8223873;28;20060;-75
2023/07/27 18:26:38;;;;;;;2.20;2.00;;;;;;;;;;8232762;28;20030;-75
2023/07/27 18:30:38;;;;;;;2.00;1.90;;;;;;;;;;8236544;28;20173;-76
2023/07/27 18:34:38;;;;;;;2.35;2.15;;;;;;;;;;8234873;28;20029;-76
2023/07/27 18:38:39;;;;;;;2.88;2.10;;;;;;;;;;8231985;28;20031;-76
2023/07/27 18:42:39;;;;;;;2.38;2.17;;;;;;;;;;8233331;28;20018;-75
2023/07/27 18:46:39;;;;;;;3.80;2.28;;;;;;;;;;8217418;28;20129;-75
2023/07/27 18:50:39;;;;;;;2.17;1.97;;;;;;;;;;8233789;28;20062;-75
2023/07/27 18:54:40;;;;;;;1.93;1.83;;;;;;;;;;8234483;28;20383;-75
2023/07/27 18:58:41;;;;;;;2.67;2.22;;;;;;;;;;8234573;28;20026;-77
2023/07/27 19:02:41;;;;;;;2.30;2.10;;;;;;;;;;8216888;28;20066;-76
2023/07/27 19:06:41;;;;;;;6.65;1.92;;;;;;;;;;8216835;28;20400;-76
2023/07/27 19:10:41;;;;;;;4.10;1.90;;;;;;;;;;8234077;28;20038;-76
2023/07/27 19:14:42;;;;;;;3.58;2.03;;;;;;;;;;8234859;28;20060;-75
2023/07/27 19:18:42;;;;;;;3.25;1.92;;;;;;;;;;8232787;28;20038;-76
2023/07/27 19:22:42;;;;;;;2.53;2.00;;;;;;;;;;8232686;28;20034;-76
2023/07/27 19:26:43;;;;;;;3.40;1.77;;;;;;;;;;8228002;28;20049;-75
2023/07/27 19:30:43;;;;;;;1.60;1.50;;;;;;;;;;8222439;28;20128;-75
2023/07/27 19:34:44;;;;;;;3.50;1.60;;;;;;;;;;8222478;28;20026;-76
2023/07/27 19:38:44;;;;;;;2.23;1.57;;;;;;;;;;8240956;28;20037;-76
2023/07/27 19:42:44;;;;;;;3.08;2.10;;;;;;;;;;8239342;28;20022;-76
2023/07/27 19:46:48;;;;;;;3.50;1.83;;;;;;;;;;8238233;28;20057;-76
2023/07/27 19:50:48;;;;;;;;;;;;;;;;;;8239725;28;20015;-76
2023/07/27 19:54:50;;;;;;;2.33;1.83;;;;;;;;;;8238183;28;19930;-77
2023/07/27 19:58:51;;;;;;;5.32;1.90;;;;;;;;;;8242187;28;20373;-76
2023/07/27 20:02:51;;;;;;;1.88;1.70;;;;;;;;;;8236511;28;20034;-76
2023/07/27 20:06:52;;;;;;;1.77;1.65;;;;;;;;;;8220798;28;20018;-76
2023/07/27 20:10:52;;;;;;;5.10;1.90;;;;;;;;;;8241481;28;20034;-76
2023/07/27 20:14:52;;;;;;;2.25;1.80;;;;;;;;;;8238287;28;20083;-72
2023/07/27 20:18:52;;;;;;;7.28;2.40;;;;;;;;;;8236020;28;20066;-72
2023/07/27 20:22:52;;;;;;;2.63;1.60;;;;;;;;;;8235450;28;20026;-72
2023/07/27 20:26:53;;;;;;;2.00;1.90;;;;;;;;;;8231531;28;20035;-72
2023/07/27 20:30:53;;;;;;;2.65;1.98;;;;;;;;;;8238825;28;20113;-72
2023/07/27 20:34:54;;;;;;;2.20;1.88;;;;;;;;;;8236108;28;20026;-72
2023/07/27 20:38:58;;;;;;;4.65;2.03;;;;;;;;;;8235990;28;20030;-72
2023/07/27 20:42:58;;;;;;;;;;;;;;;;;;8239412;28;20066;-72
2023/07/27 20:46:58;;;;;;;2.22;1.70;;;;;;;;;;8236040;28;19925;-72
2023/07/27 20:51:01;;;;;;;2.10;1.90;;;;;;;;;;8233841;28;20042;-72
2023/07/27 20:55:01;;;;;;;2.40;1.70;;;;;;;;;;8238793;28;20026;-72
2023/07/27 20:59:02;;;;;;;1.77;1.67;;;;;;;;;;8237067;28;20033;-72
2023/07/27 21:03:02;;;;;;;1.60;1.50;;;;;;;;;;8228248;28;20682;-72
2023/07/27 21:07:03;;;;;;;3.63;1.70;;;;;;;;;;8231032;28;20140;-72
2023/07/27 21:11:04;;;;;;;2.25;1.63;;;;;;;;;;8237184;28;20065;-71
2023/07/27 21:15:05;;;;;;;1.50;1.40;;;;;;;;;;8237147;28;20132;-72
2023/07/27 21:19:05;;;;;;;1.60;1.50;;;;;;;;;;8222231;28;20057;-72
2023/07/27 21:23:05;;;;;;;2.03;1.48;;;;;;;;;;8240639;28;20026;-72
2023/07/27 21:27:05;;;;;;;1.80;1.38;;;;;;;;;;8235159;28;20033;-72
2023/07/27 21:31:07;;;;;;;2.55;1.63;;;;;;;;;;8235004;28;20070;-72
2023/07/27 21:35:07;;;;;;;1.50;1.40;;;;;;;;;;8240742;28;20036;-72
2023/07/27 21:39:07;;;;;;;2.63;1.43;;;;;;;;;;8237599;28;20015;-71
2023/07/27 21:43:07;;;;;;;1.48;1.38;;;;;;;;;;8239624;28;20308;-72
2023/07/27 21:47:08;;;;;;;1.33;1.23;;;;;;;;;;8237126;28;20038;-71
2023/07/27 21:51:08;;;;;;;1.58;1.25;;;;;;;;;;8238957;28;20030;-72
2023/07/27 21:55:08;;;;;;;2.37;1.23;;;;;;;;;;8239804;28;20092;-71
2023/07/27 21:59:09;;;;;;;1.48;1.38;;;;;;;;;;8238922;28;20324;-72
2023/07/27 22:03:09;;;;;;;1.40;1.30;;;;;;;;;;8237027;28;20034;-72
2023/07/27 22:07:10;;;;;;;2.80;1.50;;;;;;;;;;8229035;28;20940;-72
2023/07/27 22:11:10;;;;;;;1.10;1.10;;;;;;;;;;8237014;28;20289;-71
2023/07/27 22:15:11;;;;;;;2.17;1.40;;;;;;;;;;8238062;28;20779;-72
2023/07/27 22:19:11;;;;;;;1.50;1.40;;;;;;;;;;8238704;28;20739;-72
2023/07/27 22:23:11;;;;;;;1.50;1.40;;;;;;;;;;8237287;28;20025;-72
2023/07/27 22:27:11;;;;;;;1.77;1.23;;;;;;;;;;8236592;28;20064;-71
2023/07/27 22:31:12;;;;;;;1.52;1.42;;;;;;;;;;8237573;28;20380;-72
2023/07/27 22:35:13;;;;;;;3.67;1.40;;;;;;;;;;8234017;28;20113;-72
2023/07/27 22:39:13;;;;;;;1.57;1.47;;;;;;;;;;8236668;28;20053;-72
2023/07/27 22:43:13;;;;;;;2.20;1.63;;;;;;;;;;8235484;28;20658;-72
2023/07/27 22:47:14;;;;;;;1.73;1.63;;;;;;;;;;8236267;28;20112;-71
2023/07/27 22:51:14;;;;;;;1.65;1.55;;;;;;;;;;8235370;28;20041;-72
2023/07/27 22:55:15;;;;;;;1.55;1.45;;;;;;;;;;8235409;28;20200;-72
2023/07/27 22:59:16;;;;;;;1.70;1.60;;;;;;;;;;8244032;28;20019;-72
2023/07/27 23:03:16;;;;;;;1.87;1.67;;;;;;;;;;8249524;28;20030;-72
2023/07/27 23:07:16;;;;;;;2.30;1.85;;;;;;;;;;8248244;28;21204;-72
2023/07/27 23:11:16;;;;;;;2.40;1.97;;;;;;;;;;8248397;28;20036;-71
2023/07/27 23:15:17;;;;;;;1.85;1.75;;;;;;;;;;8245636;28;20045;-72
2023/07/27 23:19:17;;;;;;;4.43;1.67;;;;;;;;;;8246107;28;20049;-71
2023/07/27 23:23:17;;;;;;;1.90;1.58;;;;;;;;;;8247493;28;20545;-71
2023/07/27 23:27:17;;;;;;;4.30;1.80;;;;;;;;;;8247020;28;20030;-71
2023/07/27 23:31:17;;;;;;;1.55;1.45;;;;;;;;;;8248370;28;20069;-71
2023/07/27 23:35:18;;;;;;;8.35;1.63;;;;;;;;;;8247690;28;20025;-72
2023/07/27 23:39:18;;;;;;;2.40;1.73;;;;;;;;;;8247203;28;20040;-72
2023/07/27 23:43:18;;;;;;;3.33;1.50;;;;;;;;;;8231446;28;20030;-71
2023/07/27 23:47:18;;;;;;;2.28;1.80;;;;;;;;;;8246545;28;20026;-71
2023/07/27 23:51:18;;;;;;;1.63;1.52;;;;;;;;;;8236683;28;20030;-71
2023/07/27 23:55:18;;;;;;;1.63;1.52;;;;;;;;;;8247047;28;20165;-72
2023/07/27 23:59:19;;;;;;;1.80;1.70;;;;;;;;;;8246663;28;20132;-71
